Terminal Aerodrome Forecast
Issued by NWS Huntsville, AL

Home | Current Version | Previous Version | Text Only | Print | Product List | Glossary On
Versions: 1 2 3 4 5 6 7 8 9 10 11 12 13 14 15 16 17 18 19 20 21 22 23 24 25 26 27 28
000
FTUS44 KHUN 221726
TAFHSV
TAF
KHSV 221726Z 2218/2318 17014G25KT P6SM SCT030 BKN060 BKN250
     FM230000 17010KT 6SM SHRA BR VCTS SCT015CB BKN030 OVC060
     FM230600 19008KT 4SM SHRA BR BKN015 OVC025
     FM230900 25008KT 4SM SHRA BR BKN015
     FM231500 29010KT P6SM OVC015=

USA.gov is the U.S. government's official web portal to all federal, state and local government web resources and services.